Time;durP1;ratioP1;P1;durP2;ratioP2;P2;SDS_P1;SDS_P2;PMS_P1;PMS_P2;Temp;Humidity;BMP_temperature;BMP_pressure;BME280_temperature;BME280_humidity;BME280_pressure;Samples;Min_cycle;Max_cycle;Signal;HPM_P1;HPM_P2
2021/08/31 00:00:51;;;;;;;;;9.67;7.67;;;;;;;;5034066;28;45452;-83
2021/08/31 00:03:16;;;;;;;;;12.33;9.00;;;;;;;;5030892;28;45517;-82
2021/08/31 00:05:41;;;;;;;;;11.00;8.00;;;;;;;;5031179;28;45333;-83
2021/08/31 00:08:07;;;;;;;;;7.67;6.33;;;;;;;;5033379;28;45450;-82
2021/08/31 00:10:32;;;;;;;;;8.00;8.00;;;;;;;;5031232;28;45962;-83
2021/08/31 00:12:57;;;;;;;;;10.50;7.25;;;;;;;;5033322;28;45411;-83
2021/08/31 00:15:22;;;;;;;;;11.00;6.00;;;;;;;;5031580;28;45497;-82
2021/08/31 00:17:48;;;;;;;;;11.67;7.00;;;;;;;;5032183;28;45796;-83
2021/08/31 00:20:13;;;;;;;;;14.00;10.00;;;;;;;;5030690;28;48918;-82
2021/08/31 00:22:38;;;;;;;;;7.00;6.00;;;;;;;;5031371;28;45636;-82
2021/08/31 00:25:05;;;;;;;;;8.25;7.25;;;;;;;;5034944;28;45492;-83
2021/08/31 00:27:30;;;;;;;;;12.50;7.25;;;;;;;;5031928;28;45279;-83
2021/08/31 00:29:55;;;;;;;;;9.33;7.33;;;;;;;;5031417;28;45461;-83
2021/08/31 00:32:21;;;;;;;;;8.25;6.00;;;;;;;;5029208;28;45559;-83
2021/08/31 00:34:46;;;;;;;;;8.00;7.67;;;;;;;;5024494;28;45572;-83
2021/08/31 00:37:11;;;;;;;;;9.33;6.00;;;;;;;;5028119;28;47050;-83
2021/08/31 00:39:36;;;;;;;;;8.67;7.00;;;;;;;;5030610;28;45529;-83
2021/08/31 00:42:01;;;;;;;;;13.00;9.33;;;;;;;;5031487;28;45384;-82
2021/08/31 00:44:28;;;;;;;;;6.75;6.75;;;;;;;;5031959;28;45439;-83
2021/08/31 00:46:57;;;;;;;;;10.50;8.00;;;;;;;;5030702;28;47726;-83
2021/08/31 00:49:23;;;;;;;;;7.75;7.75;;;;;;;;5032332;28;45971;-83
2021/08/31 00:51:48;;;;;;;;;10.25;7.75;;;;;;;;5029761;28;45484;-83
2021/08/31 00:54:18;;;;;;;;;10.67;8.00;;;;;;;;5031079;28;45506;-82
2021/08/31 00:56:44;;;;;;;;;9.50;8.00;;;;;;;;5031035;28;46105;-83
2021/08/31 00:59:09;;;;;;;;;11.25;8.00;;;;;;;;5030802;28;46113;-83
2021/08/31 01:01:35;;;;;;;;;11.67;9.00;;;;;;;;5031002;28;45492;-82
2021/08/31 01:04:00;;;;;;;;;11.33;7.67;;;;;;;;5034163;28;45464;-82
2021/08/31 01:06:25;;;;;;;;;7.50;7.50;;;;;;;;5026082;28;46365;-83
2021/08/31 01:08:50;;;;;;;;;11.50;8.25;;;;;;;;5026494;28;45436;-83
2021/08/31 01:11:16;;;;;;;;;8.33;7.00;;;;;;;;5032468;28;45498;-82
2021/08/31 01:13:41;;;;;;;;;9.67;8.00;;;;;;;;5030913;28;45465;-82
2021/08/31 01:16:07;;;;;;;;;12.75;8.25;;;;;;;;5025703;28;48150;-83
2021/08/31 01:18:32;;;;;;;;;10.67;8.00;;;;;;;;5030516;28;45462;-83
2021/08/31 01:20:58;;;;;;;;;8.50;8.25;;;;;;;;5030213;28;45657;-83
2021/08/31 01:23:25;;;;;;;;;11.00;6.50;;;;;;;;5030105;28;45530;-82
2021/08/31 01:25:51;;;;;;;;;7.00;7.00;;;;;;;;5029387;28;47495;-83
2021/08/31 01:28:26;;;;;;;;;7.25;7.25;;;;;;;;5033441;28;45445;-82
2021/08/31 01:30:52;;;;;;;;;9.75;8.00;;;;;;;;5032720;28;45818;-82
2021/08/31 01:33:18;;;;;;;;;14.00;8.00;;;;;;;;5029818;28;45511;-83
2021/08/31 01:35:43;;;;;;;;;13.25;6.25;;;;;;;;5030258;28;45692;-82
2021/08/31 01:38:09;;;;;;;;;6.25;6.25;;;;;;;;5023117;28;46814;-83
2021/08/31 01:40:34;;;;;;;;;9.00;7.00;;;;;;;;5030942;28;45705;-83
2021/08/31 01:42:59;;;;;;;;;11.50;7.25;;;;;;;;5034025;28;46878;-82
2021/08/31 01:45:25;;;;;;;;;9.00;6.25;;;;;;;;5023038;28;47579;-82
2021/08/31 01:47:50;;;;;;;;;7.25;7.25;;;;;;;;5024908;28;45485;-82
2021/08/31 01:50:15;;;;;;;;;9.67;8.00;;;;;;;;5029928;28;45344;-82
2021/08/31 01:52:41;;;;;;;;;6.00;6.00;;;;;;;;5028937;28;45469;-83
2021/08/31 01:55:06;;;;;;;;;6.00;6.00;;;;;;;;5030029;28;47590;-83
2021/08/31 01:57:31;;;;;;;;;6.00;5.75;;;;;;;;5028918;28;45842;-82
2021/08/31 01:59:56;;;;;;;;;7.00;5.33;;;;;;;;5029151;28;45487;-82
2021/08/31 02:02:22;;;;;;;;;7.00;6.00;;;;;;;;5030080;28;45703;-83
2021/08/31 02:04:47;;;;;;;;;8.50;6.00;;;;;;;;5030653;28;46602;-82
2021/08/31 02:07:12;;;;;;;;;6.67;5.67;;;;;;;;5030454;28;45444;-82
2021/08/31 02:09:37;;;;;;;;;7.33;6.00;;;;;;;;5031394;28;45363;-81
2021/08/31 02:12:03;;;;;;;;;7.33;6.00;;;;;;;;5029000;28;45516;-83
2021/08/31 02:14:28;;;;;;;;;8.00;6.50;;;;;;;;5029951;28;47449;-82
2021/08/31 02:16:53;;;;;;;;;7.00;7.00;;;;;;;;5030243;28;45433;-83
2021/08/31 02:19:18;;;;;;;;;9.00;6.33;;;;;;;;5031178;28;45368;-83
2021/08/31 02:21:44;;;;;;;;;11.00;7.00;;;;;;;;5025430;28;45644;-82
2021/08/31 02:24:10;;;;;;;;;9.67;8.00;;;;;;;;5029908;28;46335;-83
2021/08/31 02:26:35;;;;;;;;;7.00;6.00;;;;;;;;5029873;28;46014;-83
2021/08/31 02:29:00;;;;;;;;;8.00;5.25;;;;;;;;5031253;28;45519;-82
2021/08/31 02:31:25;;;;;;;;;8.00;7.00;;;;;;;;5030549;28;45471;-83
2021/08/31 02:33:51;;;;;;;;;6.00;5.67;;;;;;;;5030307;28;48196;-82
2021/08/31 02:36:16;;;;;;;;;6.33;6.33;;;;;;;;5028716;28;45487;-83
2021/08/31 02:38:41;;;;;;;;;6.00;6.00;;;;;;;;5030114;28;45334;-83
2021/08/31 02:41:06;;;;;;;;;9.00;6.00;;;;;;;;5030022;28;45621;-82
2021/08/31 02:43:32;;;;;;;;;7.67;6.00;;;;;;;;5030934;28;45655;-83
2021/08/31 02:45:57;;;;;;;;;8.67;5.67;;;;;;;;5030324;28;46067;-84
2021/08/31 02:48:22;;;;;;;;;7.33;6.00;;;;;;;;5029657;28;45496;-82
2021/08/31 02:50:47;;;;;;;;;7.67;5.00;;;;;;;;5029664;28;45603;-83
2021/08/31 02:53:12;;;;;;;;;4.67;4.67;;;;;;;;5028914;28;48057;-82
2021/08/31 02:55:38;;;;;;;;;6.00;5.00;;;;;;;;5028693;28;45372;-82
2021/08/31 02:58:03;;;;;;;;;5.00;5.00;;;;;;;;5027581;28;45468;-83
2021/08/31 03:00:32;;;;;;;;;8.67;7.33;;;;;;;;5028522;28;45494;-82
2021/08/31 03:02:58;;;;;;;;;6.75;6.00;;;;;;;;5029522;28;45481;-82
2021/08/31 03:05:23;;;;;;;;;7.75;5.25;;;;;;;;5028723;28;45572;-82
2021/08/31 03:07:49;;;;;;;;;8.00;6.75;;;;;;;;5022657;28;45432;-82
2021/08/31 03:10:14;;;;;;;;;8.33;5.00;;;;;;;;5030960;28;45478;-83
2021/08/31 03:12:39;;;;;;;;;6.00;6.00;;;;;;;;5030838;28;45398;-83
2021/08/31 03:15:05;;;;;;;;;7.00;5.00;;;;;;;;5028962;28;45680;-82
2021/08/31 03:17:30;;;;;;;;;5.75;5.25;;;;;;;;5029955;28;45554;-82
2021/08/31 03:19:55;;;;;;;;;7.33;5.00;;;;;;;;5032263;28;45708;-83
2021/08/31 03:22:20;;;;;;;;;9.00;6.00;;;;;;;;5035002;28;45484;-82
2021/08/31 03:24:46;;;;;;;;;4.33;4.33;;;;;;;;5028720;28;45816;-82
2021/08/31 03:27:11;;;;;;;;;4.00;4.00;;;;;;;;5033859;28;45517;-83
2021/08/31 03:29:36;;;;;;;;;8.00;6.25;;;;;;;;5032754;28;45405;-82
2021/08/31 03:32:02;;;;;;;;;8.50;5.50;;;;;;;;5032913;28;46464;-82
2021/08/31 03:34:27;;;;;;;;;6.75;6.25;;;;;;;;5034040;28;45397;-82
2021/08/31 03:36:52;;;;;;;;;6.00;4.00;;;;;;;;5034718;28;45525;-83
2021/08/31 03:39:17;;;;;;;;;6.67;5.33;;;;;;;;5032505;28;45504;-83
2021/08/31 03:41:43;;;;;;;;;4.25;4.25;;;;;;;;5034032;28;45849;-82
2021/08/31 03:44:08;;;;;;;;;8.67;5.67;;;;;;;;5032102;28;45488;-82
2021/08/31 03:46:33;;;;;;;;;6.00;6.00;;;;;;;;5018542;28;45686;-82
2021/08/31 03:48:58;;;;;;;;;6.00;5.67;;;;;;;;5033716;28;45515;-82
2021/08/31 03:51:23;;;;;;;;;9.00;5.00;;;;;;;;5033429;28;45477;-83
2021/08/31 03:53:49;;;;;;;;;6.33;5.67;;;;;;;;5031729;28;45854;-82
2021/08/31 03:56:14;;;;;;;;;7.33;5.00;;;;;;;;5028054;28;45343;-83
2021/08/31 03:58:39;;;;;;;;;10.67;6.33;;;;;;;;5032644;28;45512;-83
2021/08/31 04:01:04;;;;;;;;;8.00;6.67;;;;;;;;5032419;28;45373;-83
2021/08/31 04:03:30;;;;;;;;;6.25;6.25;;;;;;;;5030724;28;45533;-81
2021/08/31 04:05:55;;;;;;;;;7.00;5.00;;;;;;;;5033066;28;45624;-83
2021/08/31 04:08:20;;;;;;;;;8.33;7.00;;;;;;;;5033217;28;45461;-81
2021/08/31 04:10:45;;;;;;;;;8.00;6.33;;;;;;;;5029294;28;45485;-83
2021/08/31 04:13:13;;;;;;;;;6.00;6.00;;;;;;;;5035433;28;45415;-82
2021/08/31 04:15:38;;;;;;;;;10.50;5.50;;;;;;;;5032646;28;45586;-83
2021/08/31 04:18:03;;;;;;;;;10.00;7.33;;;;;;;;5030493;28;45456;-83
2021/08/31 04:20:29;;;;;;;;;7.50;5.25;;;;;;;;5026515;28;46188;-82
2021/08/31 04:22:54;;;;;;;;;7.00;5.00;;;;;;;;5030985;28;48079;-83
2021/08/31 04:25:19;;;;;;;;;9.00;7.00;;;;;;;;5031470;28;45483;-83
2021/08/31 04:27:44;;;;;;;;;6.50;6.00;;;;;;;;5033347;28;45474;-83
2021/08/31 04:30:10;;;;;;;;;9.67;7.00;;;;;;;;5031434;28;45950;-83
2021/08/31 04:32:35;;;;;;;;;10.50;6.00;;;;;;;;5030072;28;45758;-82
2021/08/31 04:35:03;;;;;;;;;7.75;5.75;;;;;;;;5032410;28;45406;-82
2021/08/31 04:37:29;;;;;;;;;11.50;8.00;;;;;;;;5032166;28;45588;-83
2021/08/31 04:39:54;;;;;;;;;7.00;7.00;;;;;;;;5024184;28;45666;-83
2021/08/31 04:42:20;;;;;;;;;11.00;8.33;;;;;;;;5022621;28;45217;-82
2021/08/31 04:44:45;;;;;;;;;8.33;8.33;;;;;;;;5030045;28;45549;-82
2021/08/31 04:47:10;;;;;;;;;11.00;8.00;;;;;;;;5033262;28;45320;-83
2021/08/31 04:49:35;;;;;;;;;10.67;7.33;;;;;;;;5029612;28;48410;-82
2021/08/31 04:52:00;;;;;;;;;9.00;8.00;;;;;;;;5029488;28;45924;-83
2021/08/31 04:54:26;;;;;;;;;9.00;7.00;;;;;;;;5025088;28;45410;-83
2021/08/31 04:56:51;;;;;;;;;9.00;7.33;;;;;;;;5031245;28;46400;-82
2021/08/31 04:59:16;;;;;;;;;10.33;9.00;;;;;;;;5031124;28;45529;-83
2021/08/31 05:01:42;;;;;;;;;9.75;9.50;;;;;;;;5031472;28;45582;-83
2021/08/31 05:04:07;;;;;;;;;14.33;10.33;;;;;;;;5033709;28;45483;-83
2021/08/31 05:06:32;;;;;;;;;12.50;9.75;;;;;;;;5030521;28;45621;-81
2021/08/31 05:08:57;;;;;;;;;18.00;11.50;;;;;;;;5031244;28;45650;-83
2021/08/31 05:11:23;;;;;;;;;14.00;9.00;;;;;;;;5031521;28;45571;-83
2021/08/31 05:13:48;;;;;;;;;10.67;9.67;;;;;;;;5030256;28;45582;-83
2021/08/31 05:16:14;;;;;;;;;13.67;9.67;;;;;;;;5033876;28;45478;-83
2021/08/31 05:18:40;;;;;;;;;19.75;13.50;;;;;;;;5030314;28;47213;-83
2021/08/31 05:21:05;;;;;;;;;13.00;12.00;;;;;;;;5030606;28;45392;-81
2021/08/31 05:23:34;;;;;;;;;13.00;9.00;;;;;;;;5031091;28;45384;-83
2021/08/31 05:26:00;;;;;;;;;13.50;11.25;;;;;;;;5030133;28;45259;-82
2021/08/31 05:28:25;;;;;;;;;15.25;14.00;;;;;;;;5032757;28;45512;-82
2021/08/31 05:30:50;;;;;;;;;15.50;11.00;;;;;;;;5032187;28;45303;-83
2021/08/31 05:33:16;;;;;;;;;12.33;11.67;;;;;;;;5030677;28;45694;-81
2021/08/31 05:35:41;;;;;;;;;17.25;11.50;;;;;;;;5029682;28;45536;-83
2021/08/31 05:38:06;;;;;;;;;17.00;13.00;;;;;;;;5027024;28;45764;-83
2021/08/31 05:40:31;;;;;;;;;14.33;12.67;;;;;;;;5029353;28;46113;-83
2021/08/31 05:42:56;;;;;;;;;12.67;11.00;;;;;;;;5030610;28;45613;-82
2021/08/31 05:45:22;;;;;;;;;11.67;10.33;;;;;;;;5029442;28;45627;-82
2021/08/31 05:47:47;;;;;;;;;9.25;9.25;;;;;;;;5030608;28;45374;-83
2021/08/31 05:50:12;;;;;;;;;12.67;11.33;;;;;;;;5030415;28;45604;-83
2021/08/31 05:52:37;;;;;;;;;13.00;11.00;;;;;;;;5024288;28;45313;-81
2021/08/31 05:55:03;;;;;;;;;14.75;11.50;;;;;;;;5033402;28;45403;-83
2021/08/31 05:57:28;;;;;;;;;14.25;9.00;;;;;;;;5024600;28;46021;-82
2021/08/31 05:59:53;;;;;;;;;12.67;11.67;;;;;;;;5021822;28;45602;-83
2021/08/31 06:02:19;;;;;;;;;18.00;10.50;;;;;;;;5031934;28;45418;-82
2021/08/31 06:04:44;;;;;;;;;15.00;12.00;;;;;;;;5023326;28;45663;-82
2021/08/31 06:07:10;;;;;;;;;13.33;11.33;;;;;;;;5024007;28;47100;-83
2021/08/31 06:09:37;;;;;;;;;16.25;11.25;;;;;;;;5033416;28;45339;-83
2021/08/31 06:12:03;;;;;;;;;15.50;12.25;;;;;;;;5030515;28;45473;-84
2021/08/31 06:14:28;;;;;;;;;15.75;12.50;;;;;;;;5028681;28;45543;-83
2021/08/31 06:16:54;;;;;;;;;15.67;12.33;;;;;;;;5030029;28;45676;-82
2021/08/31 06:19:19;;;;;;;;;13.33;13.00;;;;;;;;5026579;28;45397;-83
2021/08/31 06:21:44;;;;;;;;;14.33;10.67;;;;;;;;5025175;28;45637;-82
2021/08/31 06:24:09;;;;;;;;;14.50;13.50;;;;;;;;5027432;28;45373;-82
2021/08/31 06:26:34;;;;;;;;;17.33;14.00;;;;;;;;5029034;28;47206;-83
2021/08/31 06:29:00;;;;;;;;;18.67;14.33;;;;;;;;5029547;28;45416;-82
2021/08/31 06:31:25;;;;;;;;;13.33;13.33;;;;;;;;5030739;28;45557;-82
2021/08/31 06:33:50;;;;;;;;;15.50;12.75;;;;;;;;5030697;28;45366;-83
2021/08/31 06:36:15;;;;;;;;;16.00;15.00;;;;;;;;5024161;28;45497;-83
2021/08/31 06:38:41;;;;;;;;;20.67;16.33;;;;;;;;5029715;28;45884;-83
2021/08/31 06:41:06;;;;;;;;;16.25;11.75;;;;;;;;5028460;28;45577;-82
2021/08/31 06:43:32;;;;;;;;;20.75;18.25;;;;;;;;5021859;28;45561;-83
2021/08/31 06:45:57;;;;;;;;;16.75;16.00;;;;;;;;5031314;28;47305;-83
2021/08/31 06:48:22;;;;;;;;;15.67;13.00;;;;;;;;5029332;28;45413;-83
2021/08/31 06:50:47;;;;;;;;;22.00;13.33;;;;;;;;5029913;28;48332;-83
2021/08/31 06:53:13;;;;;;;;;18.33;16.00;;;;;;;;5030616;28;45560;-84
2021/08/31 06:55:41;;;;;;;;;20.67;15.00;;;;;;;;5034101;28;46321;-82
2021/08/31 06:58:06;;;;;;;;;18.75;15.25;;;;;;;;5031300;28;45848;-82
2021/08/31 07:00:31;;;;;;;;;19.00;16.00;;;;;;;;5033331;28;45495;-82
2021/08/31 07:02:56;;;;;;;;;17.33;15.33;;;;;;;;5033831;28;45470;-83
2021/08/31 07:05:21;;;;;;;;;20.67;17.00;;;;;;;;5032979;28;45326;-83
2021/08/31 07:07:46;;;;;;;;;16.33;14.67;;;;;;;;5032630;28;45358;-83
2021/08/31 07:10:12;;;;;;;;;20.00;16.67;;;;;;;;5036589;28;45596;-83
2021/08/31 07:12:37;;;;;;;;;16.25;14.50;;;;;;;;5033426;28;45315;-83
2021/08/31 07:15:02;;;;;;;;;23.00;18.00;;;;;;;;5032365;28;45733;-83
2021/08/31 07:17:28;;;;;;;;;20.75;17.25;;;;;;;;5033139;28;45442;-82
2021/08/31 07:19:56;;;;;;;;;21.00;16.00;;;;;;;;5034423;28;45454;-83
2021/08/31 07:22:21;;;;;;;;;20.75;18.25;;;;;;;;5033115;28;45366;-83
2021/08/31 07:24:46;;;;;;;;;26.00;18.00;;;;;;;;5029102;28;45296;-82
2021/08/31 07:27:12;;;;;;;;;22.00;17.33;;;;;;;;5032446;28;45402;-80
2021/08/31 07:29:37;;;;;;;;;26.75;18.75;;;;;;;;5034235;28;45918;-82
2021/08/31 07:32:03;;;;;;;;;18.00;17.67;;;;;;;;5032194;28;45440;-83
2021/08/31 07:34:28;;;;;;;;;24.50;21.25;;;;;;;;5034065;28;45391;-82
2021/08/31 07:36:54;;;;;;;;;22.25;17.75;;;;;;;;5034655;28;45549;-83
2021/08/31 07:39:19;;;;;;;;;23.25;17.00;;;;;;;;5031796;28;45400;-82
2021/08/31 07:41:45;;;;;;;;;21.00;18.00;;;;;;;;5031585;28;49040;-83
2021/08/31 07:44:10;;;;;;;;;20.50;16.25;;;;;;;;5031156;28;47001;-83
2021/08/31 07:46:35;;;;;;;;;28.00;22.33;;;;;;;;5032524;28;45377;-83
2021/08/31 07:49:01;;;;;;;;;22.67;18.33;;;;;;;;5033843;28;45379;-82
2021/08/31 07:51:26;;;;;;;;;22.33;18.33;;;;;;;;5032167;28;45530;-82
2021/08/31 07:53:51;;;;;;;;;23.67;19.00;;;;;;;;5032187;28;46568;-82
2021/08/31 07:56:16;;;;;;;;;25.00;20.67;;;;;;;;5030747;28;45695;-82
2021/08/31 07:58:42;;;;;;;;;25.25;20.50;;;;;;;;5030588;28;46008;-82
2021/08/31 08:01:07;;;;;;;;;18.67;18.00;;;;;;;;5033898;28;45469;-82
2021/08/31 08:03:32;;;;;;;;;21.00;18.33;;;;;;;;5028848;28;48218;-82
2021/08/31 08:05:58;;;;;;;;;26.75;19.00;;;;;;;;5030650;28;46683;-83
2021/08/31 08:08:23;;;;;;;;;27.25;18.75;;;;;;;;5031992;28;45632;-83
2021/08/31 08:10:48;;;;;;;;;24.67;21.33;;;;;;;;5031173;28;45489;-82
2021/08/31 08:13:13;;;;;;;;;23.25;20.00;;;;;;;;5029643;28;47504;-83
2021/08/31 08:15:39;;;;;;;;;24.67;23.00;;;;;;;;5014932;28;45678;-83
2021/08/31 08:18:04;;;;;;;;;22.67;21.00;;;;;;;;5029019;28;45449;-83
2021/08/31 08:20:29;;;;;;;;;21.67;20.67;;;;;;;;5031389;28;45350;-82
2021/08/31 08:22:55;;;;;;;;;21.75;18.25;;;;;;;;5030315;28;47097;-82
2021/08/31 08:25:20;;;;;;;;;22.33;20.00;;;;;;;;5033209;28;45715;-82
2021/08/31 08:27:45;;;;;;;;;19.25;18.75;;;;;;;;5032457;28;45358;-83
2021/08/31 08:30:11;;;;;;;;;22.00;17.75;;;;;;;;5030094;28;45504;-82
2021/08/31 08:32:37;;;;;;;;;31.25;23.50;;;;;;;;5030671;28;45400;-83
2021/08/31 08:35:03;;;;;;;;;25.25;18.75;;;;;;;;5030455;28;45458;-81
2021/08/31 08:37:28;;;;;;;;;23.00;19.50;;;;;;;;5033372;28;45516;-83
2021/08/31 08:39:53;;;;;;;;;25.00;19.67;;;;;;;;5030673;28;45460;-83
2021/08/31 08:42:18;;;;;;;;;24.67;22.00;;;;;;;;5027819;28;46523;-82
2021/08/31 08:44:44;;;;;;;;;31.67;25.00;;;;;;;;5023076;28;45574;-83
2021/08/31 08:47:09;;;;;;;;;22.67;19.67;;;;;;;;5030338;28;45523;-83
2021/08/31 08:49:34;;;;;;;;;22.50;21.00;;;;;;;;5030051;28;45668;-83
2021/08/31 08:52:01;;;;;;;;;20.67;18.33;;;;;;;;5033413;28;45468;-83
2021/08/31 08:54:27;;;;;;;;;17.50;17.00;;;;;;;;5029210;28;45712;-82
2021/08/31 08:56:53;;;;;;;;;22.50;19.25;;;;;;;;5029706;28;45514;-82
2021/08/31 08:59:19;;;;;;;;;22.75;18.25;;;;;;;;5028495;28;45606;-81
2021/08/31 09:01:47;;;;;;;;;21.25;16.25;;;;;;;;5029532;28;45477;-82
2021/08/31 09:04:13;;;;;;;;;25.50;18.75;;;;;;;;5027579;28;45914;-82
2021/08/31 09:06:40;;;;;;;;;20.00;16.25;;;;;;;;5025136;28;45581;-82
2021/08/31 09:09:06;;;;;;;;;21.00;18.25;;;;;;;;5023441;28;45513;-82
2021/08/31 09:11:39;;;;;;;;;18.50;16.50;;;;;;;;5026542;28;46218;-82
2021/08/31 09:14:19;;;;;;;;;17.75;15.25;;;;;;;;5025498;28;45822;-83
2021/08/31 09:16:50;;;;;;;;;18.25;15.25;;;;;;;;5022920;28;45250;-84
2021/08/31 09:19:16;;;;;;;;;19.50;16.25;;;;;;;;5025598;28;53440;-84
2021/08/31 09:21:41;;;;;;;;;17.25;14.50;;;;;;;;5024691;28;46535;-83
2021/08/31 09:24:06;;;;;;;;;19.75;15.50;;;;;;;;5023539;28;45434;-83
2021/08/31 09:26:42;;;;;;;;;18.50;15.00;;;;;;;;5026390;28;45352;-83
2021/08/31 09:29:21;;;;;;;;;15.75;13.75;;;;;;;;5026360;28;45564;-85
2021/08/31 09:31:48;;;;;;;;;18.00;17.50;;;;;;;;5024264;28;46406;-84
2021/08/31 09:34:32;;;;;;;;;18.75;16.50;;;;;;;;5025829;28;45929;-83
2021/08/31 09:37:16;;;;;;;;;19.75;16.50;;;;;;;;5030766;28;45363;-83
2021/08/31 09:39:41;;;;;;;;;17.50;17.00;;;;;;;;5024157;28;45819;-82
2021/08/31 09:42:07;;;;;;;;;19.67;17.33;;;;;;;;5029908;28;48319;-82
2021/08/31 09:44:33;;;;;;;;;22.75;19.75;;;;;;;;5023654;28;45852;-84
2021/08/31 09:47:00;;;;;;;;;16.00;15.00;;;;;;;;5019525;28;45745;-83
2021/08/31 09:49:28;;;;;;;;;18.00;16.75;;;;;;;;5029706;28;45487;-84
2021/08/31 09:52:19;;;;;;;;;13.75;12.50;;;;;;;;5025793;28;45544;-84
2021/08/31 09:54:47;;;;;;;;;16.75;15.50;;;;;;;;5025370;28;45966;-84
2021/08/31 09:57:39;;;;;;;;;17.75;15.50;;;;;;;;5022916;28;45500;-84
2021/08/31 10:00:09;;;;;;;;;22.50;18.00;;;;;;;;5021979;28;45505;-84
2021/08/31 10:02:35;;;;;;;;;18.50;17.00;;;;;;;;5020579;28;47298;-83
2021/08/31 10:05:00;;;;;;;;;17.50;17.50;;;;;;;;5023566;28;45497;-83
2021/08/31 10:07:26;;;;;;;;;15.50;15.00;;;;;;;;5028053;28;45361;-83
2021/08/31 10:09:52;;;;;;;;;17.50;17.50;;;;;;;;5025293;28;45386;-83
2021/08/31 10:12:18;;;;;;;;;21.00;16.75;;;;;;;;5023205;28;45330;-84
2021/08/31 10:14:44;;;;;;;;;22.50;19.75;;;;;;;;5024273;28;45731;-84
2021/08/31 10:17:12;;;;;;;;;21.25;18.25;;;;;;;;5027784;28;45549;-83
2021/08/31 10:19:42;;;;;;;;;17.25;14.25;;;;;;;;5022938;28;45660;-83
2021/08/31 10:22:09;;;;;;;;;18.25;17.75;;;;;;;;5028757;28;46048;-83
2021/08/31 10:24:35;;;;;;;;;15.50;14.50;;;;;;;;5017040;28;45450;-83
2021/08/31 10:27:20;;;;;;;;;21.00;17.33;;;;;;;;5018363;28;45462;-83
2021/08/31 10:29:45;;;;;;;;;18.00;14.75;;;;;;;;5025346;28;45506;-83
2021/08/31 10:32:30;;;;;;;;;21.33;19.00;;;;;;;;5030539;28;55684;-82
2021/08/31 10:34:55;;;;;;;;;18.50;17.25;;;;;;;;5028339;28;46032;-82
2021/08/31 10:37:21;;;;;;;;;22.33;19.67;;;;;;;;5028426;28;45533;-83
2021/08/31 10:39:47;;;;;;;;;18.50;14.25;;;;;;;;5029070;28;45668;-83
2021/08/31 10:42:32;;;;;;;;;20.67;15.00;;;;;;;;5025968;28;45428;-84
2021/08/31 10:44:58;;;;;;;;;19.00;15.25;;;;;;;;5021643;28;45905;-84
2021/08/31 10:47:31;;;;;;;;;17.25;14.50;;;;;;;;5023421;28;45458;-83
2021/08/31 10:49:56;;;;;;;;;22.75;16.50;;;;;;;;5031137;28;45422;-84
2021/08/31 10:52:32;;;;;;;;;17.50;17.50;;;;;;;;5027107;28;48322;-83
2021/08/31 10:54:57;;;;;;;;;16.00;15.25;;;;;;;;5029016;28;45402;-83
2021/08/31 10:57:35;;;;;;;;;17.33;17.33;;;;;;;;5026495;28;45576;-84
2021/08/31 11:00:01;;;;;;;;;21.00;17.50;;;;;;;;5026205;28;45473;-81
2021/08/31 11:02:59;;;;;;;;;18.25;14.50;;;;;;;;5028825;28;45538;-83
2021/08/31 11:05:28;;;;;;;;;15.75;14.75;;;;;;;;4965762;28;45910;-84
2021/08/31 11:08:02;;;;;;;;;20.25;18.25;;;;;;;;4972743;28;45564;-84
2021/08/31 11:10:27;;;;;;;;;18.50;15.25;;;;;;;;4991838;28;45567;-84
2021/08/31 11:12:57;;;;;;;;;16.00;13.67;;;;;;;;4976706;28;46791;-83
2021/08/31 11:15:25;;;;;;;;;17.25;15.50;;;;;;;;4974897;28;49383;-84
2021/08/31 11:17:51;;;;;;;;;17.00;15.00;;;;;;;;4991574;28;45571;-83
2021/08/31 11:20:31;;;;;;;;;14.50;13.50;;;;;;;;4984794;28;45461;-83
2021/08/31 11:23:02;;;;;;;;;18.75;14.25;;;;;;;;4972633;28;47440;-80
2021/08/31 11:25:28;;;;;;;;;19.00;15.50;;;;;;;;4991101;28;45850;-83
2021/08/31 11:27:56;;;;;;;;;18.25;14.50;;;;;;;;4993393;28;45551;-83
2021/08/31 11:30:22;;;;;;;;;21.25;17.25;;;;;;;;4991228;28;45496;-83
2021/08/31 11:32:47;;;;;;;;;15.75;15.75;;;;;;;;4991330;28;46246;-81
2021/08/31 11:35:13;;;;;;;;;14.50;13.50;;;;;;;;4991547;28;45505;-84
2021/08/31 11:37:51;;;;;;;;;13.00;13.00;;;;;;;;4986570;28;45587;-84
2021/08/31 11:40:24;;;;;;;;;13.75;12.00;;;;;;;;4993342;28;45412;-83
2021/08/31 11:42:50;;;;;;;;;15.75;13.00;;;;;;;;5028642;28;48516;-84
2021/08/31 11:45:16;;;;;;;;;14.25;13.00;;;;;;;;5020969;28;45669;-82
2021/08/31 11:47:41;;;;;;;;;13.75;12.00;;;;;;;;5022625;28;45376;-84
2021/08/31 11:50:07;;;;;;;;;15.25;14.25;;;;;;;;5030875;28;45322;-84
2021/08/31 11:52:32;;;;;;;;;12.00;10.50;;;;;;;;5026221;28;45453;-84
2021/08/31 11:54:58;;;;;;;;;15.00;12.33;;;;;;;;5028298;28;45513;-84
2021/08/31 11:57:33;;;;;;;;;12.50;12.50;;;;;;;;5027224;28;45575;-85
2021/08/31 11:59:59;;;;;;;;;11.75;11.25;;;;;;;;5025349;28;45572;-85
2021/08/31 12:02:26;;;;;;;;;13.75;12.00;;;;;;;;5027962;28;45487;-84
2021/08/31 12:04:54;;;;;;;;;8.75;8.75;;;;;;;;5026955;28;45670;-85
2021/08/31 12:07:20;;;;;;;;;12.00;9.75;;;;;;;;5030421;28;45602;-85
2021/08/31 12:09:46;;;;;;;;;11.00;11.00;;;;;;;;5026814;28;45545;-85
2021/08/31 12:12:12;;;;;;;;;13.00;11.25;;;;;;;;5024945;28;45949;-85
2021/08/31 12:14:38;;;;;;;;;12.75;9.50;;;;;;;;5025888;28;49233;-86
2021/08/31 12:17:03;;;;;;;;;12.50;11.00;;;;;;;;5027029;28;45394;-85
2021/08/31 12:19:29;;;;;;;;;10.25;10.25;;;;;;;;5014451;28;45371;-85
2021/08/31 12:22:10;;;;;;;;;12.25;10.25;;;;;;;;5027700;28;46144;-84
2021/08/31 12:24:36;;;;;;;;;13.75;10.25;;;;;;;;5025624;28;45856;-85
2021/08/31 12:27:11;;;;;;;;;11.25;10.25;;;;;;;;5030728;28;45443;-85
2021/08/31 12:29:47;;;;;;;;;12.25;11.00;;;;;;;;5031547;28;46083;-84
2021/08/31 12:32:13;;;;;;;;;11.00;11.00;;;;;;;;5030297;28;46072;-85
2021/08/31 12:34:38;;;;;;;;;13.25;10.25;;;;;;;;5040240;28;45423;-85
2021/08/31 12:37:23;;;;;;;;;12.33;11.00;;;;;;;;5028831;28;45355;-85
2021/08/31 12:39:48;;;;;;;;;12.00;10.75;;;;;;;;5029402;28;45482;-83
2021/08/31 12:42:16;;;;;;;;;13.00;13.00;;;;;;;;5023276;28;47529;-83
2021/08/31 12:44:48;;;;;;;;;34.50;30.50;;;;;;;;5024110;28;45862;-85
2021/08/31 12:47:16;;;;;;;;;19.50;18.75;;;;;;;;5021341;28;45438;-84
2021/08/31 12:49:41;;;;;;;;;18.75;17.50;;;;;;;;5014825;28;45369;-84
2021/08/31 12:52:13;;;;;;;;;24.00;22.33;;;;;;;;5028861;28;45404;-84
2021/08/31 12:54:39;;;;;;;;;69.25;57.75;;;;;;;;5028494;28;45368;-82
2021/08/31 12:57:07;;;;;;;;;56.33;44.67;;;;;;;;5027929;28;45572;-82
2021/08/31 12:59:32;;;;;;;;;86.75;80.25;;;;;;;;5027507;28;45493;-81
2021/08/31 13:01:58;;;;;;;;;45.67;35.33;;;;;;;;5027885;28;45585;-83
2021/08/31 13:04:23;;;;;;;;;16.25;16.25;;;;;;;;5030125;28;45558;-84
2021/08/31 13:06:53;;;;;;;;;11.33;10.33;;;;;;;;5029045;28;45519;-83
2021/08/31 13:09:20;;;;;;;;;9.75;9.75;;;;;;;;5028147;28;45559;-84
2021/08/31 13:11:49;;;;;;;;;15.75;10.75;;;;;;;;5025537;28;46485;-83
2021/08/31 13:14:16;;;;;;;;;21.00;19.25;;;;;;;;5029439;28;45621;-84
2021/08/31 13:16:42;;;;;;;;;13.00;10.25;;;;;;;;5030141;28;45389;-83
2021/08/31 13:19:08;;;;;;;;;11.25;10.00;;;;;;;;5031259;28;45398;-85
2021/08/31 13:21:33;;;;;;;;;12.75;12.75;;;;;;;;5027415;28;46118;-83
2021/08/31 13:23:59;;;;;;;;;10.75;10.75;;;;;;;;5022206;28;45514;-84
2021/08/31 13:26:24;;;;;;;;;14.50;13.50;;;;;;;;5029152;28;45573;-84
2021/08/31 13:28:50;;;;;;;;;10.00;10.00;;;;;;;;5030081;28;45438;-83
2021/08/31 13:31:16;;;;;;;;;12.00;9.50;;;;;;;;5030103;28;46114;-84
2021/08/31 13:33:41;;;;;;;;;6.50;6.50;;;;;;;;5025595;28;45525;-82
2021/08/31 13:36:06;;;;;;;;;9.25;8.25;;;;;;;;5024959;28;45450;-84
2021/08/31 13:38:32;;;;;;;;;10.25;10.25;;;;;;;;5031282;28;45453;-84
2021/08/31 13:40:57;;;;;;;;;10.25;8.00;;;;;;;;5027674;28;45495;-84
2021/08/31 13:43:22;;;;;;;;;10.00;7.00;;;;;;;;5024338;28;45542;-84
2021/08/31 13:45:48;;;;;;;;;5.67;5.67;;;;;;;;5019459;28;45398;-84
2021/08/31 13:48:14;;;;;;;;;9.25;9.25;;;;;;;;5013715;28;45741;-85
2021/08/31 13:50:40;;;;;;;;;8.25;8.00;;;;;;;;5026808;28;48130;-83
2021/08/31 13:53:05;;;;;;;;;9.00;8.75;;;;;;;;5027618;28;45513;-84
2021/08/31 13:55:31;;;;;;;;;9.33;9.33;;;;;;;;5030400;28;45452;-84
2021/08/31 13:57:56;;;;;;;;;12.75;10.75;;;;;;;;5023310;28;45539;-85
2021/08/31 14:00:21;;;;;;;;;11.00;10.50;;;;;;;;5019336;28;46466;-83
2021/08/31 14:02:47;;;;;;;;;8.00;6.75;;;;;;;;5021023;28;45549;-83
2021/08/31 14:05:12;;;;;;;;;7.33;7.33;;;;;;;;5025154;28;45484;-84
2021/08/31 14:07:37;;;;;;;;;12.00;10.33;;;;;;;;5021414;28;45479;-85
2021/08/31 14:10:02;;;;;;;;;8.00;8.00;;;;;;;;5023423;28;45784;-86
2021/08/31 14:12:28;;;;;;;;;11.75;9.25;;;;;;;;5023248;28;45700;-85
2021/08/31 14:14:53;;;;;;;;;7.33;7.33;;;;;;;;5023923;28;45458;-85
2021/08/31 14:17:18;;;;;;;;;8.67;8.67;;;;;;;;5024991;28;45378;-82
2021/08/31 14:19:43;;;;;;;;;8.25;7.75;;;;;;;;5013763;28;47688;-84
2021/08/31 14:22:09;;;;;;;;;10.00;10.00;;;;;;;;5025211;28;45740;-84